Time;durP1;ratioP1;P1;durP2;ratioP2;P2;SDS_P1;SDS_P2;PMS_P1;PMS_P2;Temp;Humidity;BMP_temperature;BMP_pressure;BME280_temperature;BME280_humidity;BME280_pressure;Samples;Min_cycle;Max_cycle;Signal;HPM_P1;HPM_P2
2022/07/24 00:00:42;;;;;;;1999.90;999.90;;;21.00;99.90;;;;;;4995519;28;20168;-70
2022/07/24 00:03:07;;;;;;;1999.90;999.90;;;20.90;99.90;;;;;;4995580;28;20172;-72
2022/07/24 00:05:33;;;;;;;1999.90;999.90;;;20.80;99.90;;;;;;4995526;28;20174;-71
2022/07/24 00:07:59;;;;;;;1999.90;999.90;;;20.80;99.90;;;;;;4995102;28;20401;-71
2022/07/24 00:10:25;;;;;;;1999.90;999.90;;;20.70;99.90;;;;;;4995345;28;20915;-71
2022/07/24 00:12:51;;;;;;;1999.90;999.90;;;20.60;99.90;;;;;;4995307;28;20257;-71
2022/07/24 00:15:16;;;;;;;1999.90;999.90;;;20.60;99.90;;;;;;4995327;28;20177;-71
2022/07/24 00:17:42;;;;;;;1999.90;999.90;;;20.50;99.90;;;;;;4994980;28;20244;-71
2022/07/24 00:20:09;;;;;;;1999.90;999.90;;;20.40;99.90;;;;;;4995278;28;20174;-71
2022/07/24 00:22:34;;;;;;;1999.90;999.90;;;20.40;99.90;;;;;;4995256;28;20194;-70
2022/07/24 00:25:00;;;;;;;1999.90;999.90;;;20.30;99.90;;;;;;4995083;28;20449;-71
2022/07/24 00:27:26;;;;;;;1999.90;999.90;;;20.30;99.90;;;;;;4994833;28;20297;-72
2022/07/24 00:29:51;;;;;;;1999.90;999.90;;;20.20;99.90;;;;;;4995083;28;20167;-71
2022/07/24 00:32:17;;;;;;;1999.90;999.90;;;20.30;99.90;;;;;;4994980;28;20202;-71
2022/07/24 00:34:43;;;;;;;1999.90;999.90;;;20.20;99.90;;;;;;4994132;28;20176;-72
2022/07/24 00:37:08;;;;;;;1999.90;999.90;;;20.20;99.90;;;;;;4994714;28;20241;-72
2022/07/24 00:39:34;;;;;;;1999.90;999.90;;;20.10;99.90;;;;;;4994762;28;20604;-72
2022/07/24 00:42:00;;;;;;;1999.90;999.90;;;20.00;99.90;;;;;;4994898;28;20229;-71
2022/07/24 00:44:25;;;;;;;1999.90;999.90;;;20.00;99.90;;;;;;4994724;28;20170;-71
2022/07/24 00:46:51;;;;;;;1999.90;999.90;;;20.10;99.90;;;;;;4994538;28;20578;-72
2022/07/24 00:49:19;;;;;;;1999.90;999.90;;;20.10;99.90;;;;;;4994597;28;20832;-72
2022/07/24 00:51:48;;;;;;;1999.90;999.90;;;20.10;99.90;;;;;;4994634;28;20283;-72
2022/07/24 00:54:15;;;;;;;1999.90;999.90;;;20.10;99.90;;;;;;4994585;28;20464;-71
2022/07/24 00:56:42;;;;;;;1999.90;999.90;;;20.10;99.90;;;;;;4994234;28;20497;-72
2022/07/24 00:59:08;;;;;;;1999.90;999.90;;;20.00;99.90;;;;;;4994468;28;20428;-71
2022/07/24 01:01:33;;;;;;;1999.90;999.90;;;20.00;99.90;;;;;;4994458;28;20401;-72
2022/07/24 01:03:59;;;;;;;1999.90;999.90;;;20.00;99.90;;;;;;4994428;28;20185;-72
2022/07/24 01:06:25;;;;;;;1999.90;999.90;;;20.00;99.90;;;;;;4994145;28;20189;-72
2022/07/24 01:08:52;;;;;;;1999.90;999.90;;;20.00;99.90;;;;;;4994270;28;20507;-72
2022/07/24 01:11:18;;;;;;;1999.90;999.90;;;19.90;99.90;;;;;;4994296;28;20770;-72
2022/07/24 01:13:46;;;;;;;1999.90;999.90;;;19.90;99.90;;;;;;4994114;28;20876;-71
2022/07/24 01:16:12;;;;;;;1999.90;999.90;;;19.90;99.90;;;;;;4993916;28;20418;-72
2022/07/24 01:18:37;;;;;;;1999.90;999.90;;;19.90;99.90;;;;;;4994085;28;20431;-72
2022/07/24 01:21:04;;;;;;;1999.90;999.90;;;19.80;99.90;;;;;;4994190;28;20185;-71
2022/07/24 01:23:30;;;;;;;1999.90;999.90;;;19.80;99.90;;;;;;4994065;28;20183;-71
2022/07/24 01:25:56;;;;;;;1999.90;999.90;;;19.70;99.90;;;;;;4993794;28;20409;-72
2022/07/24 01:28:21;;;;;;;1999.90;999.90;;;19.80;99.90;;;;;;4993769;28;20217;-72
2022/07/24 01:30:47;;;;;;;1999.90;999.90;;;19.80;99.90;;;;;;4993929;28;20165;-71
2022/07/24 01:33:13;;;;;;;1999.90;999.90;;;19.70;99.90;;;;;;4993834;28;20204;-71
2022/07/24 01:35:40;;;;;;;1999.90;999.90;;;19.60;99.90;;;;;;4993778;28;20177;-72
2022/07/24 01:38:05;;;;;;;1999.90;999.90;;;19.50;99.90;;;;;;4993445;28;20431;-72
2022/07/24 01:40:31;;;;;;;1999.90;999.90;;;19.40;99.90;;;;;;4993620;28;20491;-72
2022/07/24 01:42:57;;;;;;;1999.90;999.90;;;19.40;99.90;;;;;;4993967;28;20710;-71
2022/07/24 01:45:23;;;;;;;1999.90;999.90;;;19.30;99.90;;;;;;4993628;28;20177;-70
2022/07/24 01:47:48;;;;;;;1999.90;999.90;;;19.30;99.90;;;;;;4993218;28;20210;-71
2022/07/24 01:50:14;;;;;;;1999.90;999.90;;;19.20;99.90;;;;;;4993673;28;20579;-71
2022/07/24 01:52:41;;;;;;;1999.90;999.90;;;19.10;99.90;;;;;;4993475;28;20233;-71
2022/07/24 01:55:07;;;;;;;1999.90;999.90;;;19.10;99.90;;;;;;4993470;28;20411;-71
2022/07/24 01:57:33;;;;;;;1999.90;999.90;;;19.10;99.90;;;;;;4993048;28;20489;-71
2022/07/24 02:00:00;;;;;;;1999.90;999.90;;;19.10;99.90;;;;;;4993339;28;20407;-71
2022/07/24 02:02:27;;;;;;;1999.90;999.90;;;19.10;99.90;;;;;;4993508;28;20770;-71
2022/07/24 02:04:53;;;;;;;1999.90;999.90;;;19.10;99.90;;;;;;4993412;28;20406;-71
2022/07/24 02:07:18;;;;;;;1999.90;999.90;;;19.00;99.90;;;;;;4992963;28;20413;-71
2022/07/24 02:09:44;;;;;;;1999.90;999.90;;;19.00;99.90;;;;;;4993107;28;20461;-71
2022/07/24 02:12:10;;;;;;;1999.90;999.90;;;19.00;99.90;;;;;;4993114;28;20250;-71
2022/07/24 02:14:36;;;;;;;1999.90;999.90;;;19.10;99.90;;;;;;4993122;28;20407;-71
2022/07/24 02:17:01;;;;;;;1999.90;999.90;;;19.20;99.90;;;;;;4992850;28;20168;-71
2022/07/24 02:19:27;;;;;;;1999.90;999.90;;;19.20;99.90;;;;;;4993091;28;20777;-71
2022/07/24 02:21:52;;;;;;;1999.90;999.90;;;19.30;99.90;;;;;;4993064;28;20184;-71
2022/07/24 02:24:18;;;;;;;1999.90;999.90;;;19.40;99.90;;;;;;4992881;28;20242;-71
2022/07/24 02:26:44;;;;;;;1999.90;999.90;;;19.30;99.90;;;;;;4992622;28;20167;-70
2022/07/24 02:29:09;;;;;;;1999.90;999.90;;;19.30;99.90;;;;;;4992899;28;20200;-71
2022/07/24 02:31:35;;;;;;;1999.90;999.90;;;19.30;99.90;;;;;;4992794;28;20178;-71
2022/07/24 02:34:00;;;;;;;1999.90;999.90;;;19.40;99.90;;;;;;4992860;28;20173;-71
2022/07/24 02:36:26;;;;;;;1999.90;999.90;;;19.40;99.90;;;;;;4992585;28;20259;-71
2022/07/24 02:38:52;;;;;;;1999.90;999.90;;;19.40;99.90;;;;;;4992681;28;20200;-71
2022/07/24 02:41:18;;;;;;;1999.90;999.90;;;19.30;99.90;;;;;;4992691;28;20411;-71
2022/07/24 02:43:43;;;;;;;1999.90;999.90;;;19.40;99.90;;;;;;4992756;28;20184;-71
2022/07/24 02:46:09;;;;;;;1999.90;999.90;;;19.30;99.90;;;;;;4992393;28;20178;-71
2022/07/24 02:48:34;;;;;;;1999.90;999.90;;;19.20;99.90;;;;;;4992458;28;20211;-71
2022/07/24 02:51:00;;;;;;;1999.90;999.90;;;19.20;99.90;;;;;;4992674;28;20761;-71
2022/07/24 02:53:26;;;;;;;1999.90;999.90;;;19.20;99.90;;;;;;4992541;28;20275;-71
2022/07/24 02:55:51;;;;;;;1999.90;999.90;;;19.20;99.90;;;;;;4992381;28;20173;-71
2022/07/24 02:58:17;;;;;;;1999.90;999.90;;;19.10;99.90;;;;;;4994836;28;20236;-71
2022/07/24 03:00:43;;;;;;;1999.90;999.90;;;19.10;99.90;;;;;;4999182;28;20176;-71
2022/07/24 03:03:08;;;;;;;1999.90;999.90;;;19.20;99.90;;;;;;4999090;28;20413;-71
2022/07/24 03:05:34;;;;;;;1999.90;999.90;;;19.20;99.90;;;;;;4999086;28;20607;-71
2022/07/24 03:07:59;;;;;;;1999.90;999.90;;;19.20;99.90;;;;;;4998610;28;20613;-71
2022/07/24 03:10:25;;;;;;;1999.90;999.90;;;19.20;99.90;;;;;;4998975;28;20180;-71
2022/07/24 03:12:51;;;;;;;1999.90;999.90;;;19.20;99.90;;;;;;4998971;28;20280;-70
2022/07/24 03:15:17;;;;;;;1999.90;999.90;;;19.10;99.90;;;;;;4999018;28;20172;-71
2022/07/24 03:17:50;;;;;;;1999.90;999.90;;;19.00;99.90;;;;;;4998576;28;20663;-71
2022/07/24 03:20:16;;;;;;;1999.90;999.90;;;19.00;99.90;;;;;;4998963;28;20820;-71
2022/07/24 03:22:43;;;;;;;1999.90;999.90;;;19.00;99.90;;;;;;4999202;28;20973;-71
2022/07/24 03:25:09;;;;;;;1999.90;999.90;;;19.00;99.90;;;;;;4998898;28;20406;-71
2022/07/24 03:27:34;;;;;;;1999.90;999.90;;;18.90;99.90;;;;;;4998519;28;21003;-71
2022/07/24 03:30:00;;;;;;;1999.90;999.90;;;18.90;99.90;;;;;;4998869;28;20176;-71
2022/07/24 03:32:26;;;;;;;1999.90;999.90;;;18.80;99.90;;;;;;4998723;28;20201;-71
2022/07/24 03:34:51;;;;;;;1999.90;999.90;;;18.80;99.90;;;;;;4998808;28;20259;-71
2022/07/24 03:37:17;;;;;;;1999.90;999.90;;;18.90;99.90;;;;;;4998359;28;20164;-71
2022/07/24 03:39:43;;;;;;;1999.90;999.90;;;18.80;99.90;;;;;;4998751;28;20167;-71
2022/07/24 03:42:08;;;;;;;1999.90;999.90;;;18.70;99.90;;;;;;4998726;28;20258;-71
2022/07/24 03:44:34;;;;;;;1999.90;999.90;;;18.70;99.90;;;;;;4998759;28;20175;-71
2022/07/24 03:46:59;;;;;;;1999.90;999.90;;;18.60;99.90;;;;;;4998436;28;20174;-71
2022/07/24 03:49:25;;;;;;;1999.90;999.90;;;18.60;99.90;;;;;;4998492;28;20955;-71
2022/07/24 03:51:50;;;;;;;1999.90;999.90;;;18.60;99.90;;;;;;4998512;28;20202;-71
2022/07/24 03:54:16;;;;;;;1999.90;999.90;;;18.60;99.90;;;;;;4998620;28;20250;-71
2022/07/24 03:56:42;;;;;;;1999.90;999.90;;;18.70;99.90;;;;;;4998285;28;20649;-70
2022/07/24 03:59:08;;;;;;;1999.90;999.90;;;18.70;99.90;;;;;;4998536;28;20199;-71
2022/07/24 04:01:33;;;;;;;1999.90;999.90;;;18.80;99.90;;;;;;4998560;28;20182;-71
2022/07/24 04:04:04;;;;;;;1999.90;999.90;;;18.70;99.90;;;;;;4998566;28;20684;-71
2022/07/24 04:06:31;;;;;;;1999.90;999.90;;;18.80;99.90;;;;;;4998223;28;20176;-71
2022/07/24 04:08:57;;;;;;;1999.90;999.90;;;18.80;99.90;;;;;;4998133;28;20422;-71
2022/07/24 04:11:22;;;;;;;1999.90;999.90;;;18.70;99.90;;;;;;4994327;28;20980;-71
2022/07/24 04:13:48;;;;;;;1999.90;999.90;;;18.60;99.90;;;;;;4995371;28;20226;-71
2022/07/24 04:16:14;;;;;;;1999.90;999.90;;;18.60;99.90;;;;;;4995084;28;20167;-71
2022/07/24 04:18:40;;;;;;;1999.90;999.90;;;18.60;99.90;;;;;;4995246;28;20217;-71
2022/07/24 04:21:06;;;;;;;1999.90;999.90;;;18.50;99.90;;;;;;4995085;28;20178;-71
2022/07/24 04:23:31;;;;;;;1999.90;999.90;;;18.50;99.90;;;;;;4995259;28;20418;-71
2022/07/24 04:25:57;;;;;;;1999.90;999.90;;;18.50;99.90;;;;;;4994954;28;20704;-71
2022/07/24 04:28:23;;;;;;;1999.90;999.90;;;18.50;99.90;;;;;;4995065;28;20196;-71
2022/07/24 04:30:48;;;;;;;1999.90;999.90;;;18.60;99.90;;;;;;4995107;28;20211;-71
2022/07/24 04:33:14;;;;;;;1999.90;999.90;;;18.60;99.90;;;;;;4994999;28;20197;-71
2022/07/24 04:35:39;;;;;;;1999.90;999.90;;;18.60;99.90;;;;;;4994939;28;20181;-71
2022/07/24 04:38:05;;;;;;;1999.90;999.90;;;18.70;99.90;;;;;;4994617;28;20199;-71
2022/07/24 04:40:30;;;;;;;1999.90;999.90;;;18.70;99.90;;;;;;4994952;28;20172;-71
2022/07/24 04:42:56;;;;;;;1999.90;999.90;;;18.70;99.90;;;;;;4994872;28;20259;-71
2022/07/24 04:45:22;;;;;;;1999.90;999.90;;;18.80;99.90;;;;;;4994917;28;20176;-71
2022/07/24 04:47:48;;;;;;;1999.90;999.90;;;18.80;99.90;;;;;;4994350;28;20208;-71
2022/07/24 04:50:13;;;;;;;1999.90;999.90;;;18.90;99.90;;;;;;4994659;28;20584;-71
2022/07/24 04:52:39;;;;;;;1999.90;999.90;;;18.90;99.90;;;;;;4994608;28;20268;-71
2022/07/24 04:55:05;;;;;;;1999.90;999.90;;;19.00;99.90;;;;;;4994669;28;20183;-70
2022/07/24 04:57:31;;;;;;;1999.90;999.90;;;19.00;99.90;;;;;;4994277;28;20170;-70
2022/07/24 04:59:56;;;;;;;1999.90;999.90;;;19.10;99.90;;;;;;4994563;28;20900;-70
2022/07/24 05:02:22;;;;;;;1999.90;999.90;;;19.20;99.90;;;;;;4994466;28;20175;-71
2022/07/24 05:04:47;;;;;;;1999.90;999.90;;;19.20;99.90;;;;;;4994642;28;20190;-71
2022/07/24 05:07:13;;;;;;;1999.90;999.90;;;19.40;99.90;;;;;;4994074;28;20181;-71
2022/07/24 05:09:39;;;;;;;1999.90;999.90;;;19.40;99.90;;;;;;4994545;28;20250;-71
2022/07/24 05:12:04;;;;;;;1999.90;999.90;;;19.50;99.90;;;;;;4994271;28;20671;-71
2022/07/24 05:14:30;;;;;;;1999.90;999.90;;;19.60;99.90;;;;;;4994372;28;20200;-72
2022/07/24 05:16:56;;;;;;;1999.90;999.90;;;19.60;99.90;;;;;;4993958;28;20167;-71
2022/07/24 05:19:21;;;;;;;1999.90;999.90;;;19.80;99.90;;;;;;4994042;28;20187;-71
2022/07/24 05:21:47;;;;;;;1999.90;999.90;;;19.80;99.90;;;;;;4993890;28;20174;-71
2022/07/24 05:24:12;;;;;;;1999.90;999.90;;;19.80;99.90;;;;;;4994065;28;20170;-71
2022/07/24 05:26:38;;;;;;;1999.90;999.90;;;19.80;99.90;;;;;;4993788;28;20537;-71
2022/07/24 05:29:07;;;;;;;1999.90;999.90;;;19.70;99.90;;;;;;4993989;28;20193;-71
2022/07/24 05:31:33;;;;;;;1999.90;999.90;;;19.60;99.90;;;;;;4993895;28;20181;-71
2022/07/24 05:34:01;;;;;;;1999.90;999.90;;;19.50;99.90;;;;;;4993820;28;20507;-71
2022/07/24 05:36:28;;;;;;;1999.90;999.90;;;19.40;99.90;;;;;;4993730;28;20887;-71
2022/07/24 05:38:54;;;;;;;1999.90;999.90;;;19.50;99.90;;;;;;4993796;28;20924;-71
2022/07/24 05:41:19;;;;;;;1999.90;999.90;;;19.50;99.90;;;;;;4993936;28;20442;-71
2022/07/24 05:43:45;;;;;;;1999.90;999.90;;;19.60;99.90;;;;;;4993804;28;20789;-71
2022/07/24 05:46:11;;;;;;;1999.90;999.90;;;19.70;99.90;;;;;;4993357;28;20180;-72
2022/07/24 05:48:36;;;;;;;1999.90;999.90;;;19.70;99.90;;;;;;4993394;28;20691;-70
2022/07/24 05:51:02;;;;;;;1999.90;999.90;;;19.80;99.90;;;;;;4993555;28;20202;-70
2022/07/24 05:53:28;;;;;;;1999.90;999.90;;;19.80;99.90;;;;;;4993486;28;20192;-70
2022/07/24 05:55:54;;;;;;;1999.90;999.90;;;19.90;99.90;;;;;;4993403;28;20410;-70
2022/07/24 05:58:20;;;;;;;1999.90;999.90;;;20.00;99.90;;;;;;4993224;28;20429;-70
2022/07/24 06:00:46;;;;;;;1999.90;999.90;;;20.10;99.90;;;;;;4993410;28;20631;-70
2022/07/24 06:03:12;;;;;;;1999.90;999.90;;;20.20;99.90;;;;;;4993244;28;20175;-71
2022/07/24 06:05:38;;;;;;;1999.90;999.90;;;20.30;99.90;;;;;;4993274;28;20407;-71
2022/07/24 06:08:04;;;;;;;1999.90;999.90;;;20.40;99.90;;;;;;4992947;28;20539;-71
2022/07/24 06:10:31;;;;;;;1999.90;999.90;;;20.50;99.90;;;;;;4993245;28;20175;-71
2022/07/24 06:12:57;;;;;;;1999.90;999.90;;;20.60;99.90;;;;;;4993181;28;20489;-70
2022/07/24 06:15:23;;;;;;;1999.90;999.90;;;20.70;99.90;;;;;;4993125;28;20436;-70
2022/07/24 06:17:48;;;;;;;1999.90;999.90;;;20.80;99.90;;;;;;4992640;28;20202;-70
2022/07/24 06:20:16;;;;;;;1999.90;999.90;;;20.90;99.90;;;;;;4993082;28;20629;-71
2022/07/24 06:22:42;;;;;;;1999.90;999.90;;;21.00;99.90;;;;;;4992888;28;20179;-70
2022/07/24 06:25:08;;;;;;;1999.90;999.90;;;21.20;99.90;;;;;;4992954;28;20401;-71
2022/07/24 06:27:39;;;;;;;1999.90;999.90;;;21.20;99.90;;;;;;4992560;28;20435;-71
2022/07/24 06:30:05;;;;;;;1999.90;999.90;;;21.30;99.90;;;;;;4992912;28;20438;-72
2022/07/24 06:32:31;;;;;;;1999.90;999.90;;;21.30;99.90;;;;;;4992202;28;20458;-71
2022/07/24 06:34:56;;;;;;;1999.90;999.90;;;21.40;99.90;;;;;;4992735;28;20490;-71
2022/07/24 06:37:22;;;;;;;1999.90;999.90;;;21.40;99.90;;;;;;4992478;28;20168;-71
2022/07/24 06:39:47;;;;;;;1999.90;999.90;;;21.30;99.90;;;;;;4992808;28;20639;-72
2022/07/24 06:42:13;;;;;;;1999.90;999.90;;;21.30;99.90;;;;;;4992771;28;20201;-71
2022/07/24 06:44:38;;;;;;;1999.90;999.90;;;21.40;99.90;;;;;;4992758;28;20179;-71
2022/07/24 06:47:04;;;;;;;1999.90;999.90;;;21.50;99.90;;;;;;4992340;28;20259;-71
2022/07/24 06:49:30;;;;;;;1999.90;999.90;;;21.60;99.90;;;;;;4992492;28;20207;-71
2022/07/24 06:51:56;;;;;;;1999.90;999.90;;;21.70;99.90;;;;;;4992623;28;20196;-72
2022/07/24 06:54:21;;;;;;;1999.90;999.90;;;21.90;99.90;;;;;;4992623;28;20259;-71
2022/07/24 06:56:47;;;;;;;1999.90;999.90;;;22.00;99.90;;;;;;4992334;28;20192;-71
2022/07/24 06:59:12;;;;;;;1999.90;999.90;;;22.10;99.90;;;;;;4992497;28;20280;-71
2022/07/24 07:01:38;;;;;;;1999.90;999.90;;;22.30;99.90;;;;;;4992510;28;20179;-71
2022/07/24 07:04:03;;;;;;;1999.90;999.90;;;22.40;99.90;;;;;;4992590;28;20177;-72
2022/07/24 07:06:29;;;;;;;1999.90;999.90;;;22.50;99.90;;;;;;4992282;28;20173;-72
2022/07/24 07:08:55;;;;;;;1999.90;999.90;;;22.60;99.90;;;;;;4992486;28;20713;-71
2022/07/24 07:11:20;;;;;;;1999.90;999.90;;;22.60;99.90;;;;;;4992574;28;20169;-70
2022/07/24 07:13:46;;;;;;;1999.90;999.90;;;22.70;99.90;;;;;;4992455;28;20856;-71
2022/07/24 07:16:11;;;;;;;1999.90;999.90;;;22.80;99.90;;;;;;4992102;28;20165;-71
2022/07/24 07:18:37;;;;;;;1999.90;999.90;;;22.90;99.90;;;;;;4992410;28;20192;-71
2022/07/24 07:21:03;;;;;;;1999.90;999.90;;;22.90;99.90;;;;;;4992452;28;20649;-72
2022/07/24 07:23:29;;;;;;;1999.90;999.90;;;23.10;99.90;;;;;;4992331;28;20173;-72
2022/07/24 07:25:54;;;;;;;1999.90;999.90;;;23.10;99.90;;;;;;4992345;28;20469;-71
2022/07/24 07:28:20;;;;;;;1999.90;999.90;;;23.20;99.90;;;;;;4992163;28;20206;-71
2022/07/24 07:30:46;;;;;;;1999.90;999.90;;;23.20;99.90;;;;;;4991292;28;20635;-71
2022/07/24 07:33:12;;;;;;;1999.90;999.90;;;23.30;99.90;;;;;;4992225;28;20201;-72
2022/07/24 07:35:38;;;;;;;1999.90;999.90;;;23.40;99.90;;;;;;4992438;28;20177;-72
2022/07/24 07:38:04;;;;;;;1999.90;999.90;;;23.40;99.90;;;;;;4991905;28;20959;-72
2022/07/24 07:40:29;;;;;;;1999.90;999.90;;;23.50;99.90;;;;;;4992224;28;20405;-72
2022/07/24 07:42:55;;;;;;;1999.90;999.90;;;23.60;99.90;;;;;;4992267;28;20655;-72
2022/07/24 07:45:21;;;;;;;1999.90;999.90;;;23.50;99.90;;;;;;4994697;28;20184;-72
2022/07/24 07:47:46;;;;;;;1999.90;999.90;;;23.50;99.90;;;;;;4995489;28;20212;-71
2022/07/24 07:50:12;;;;;;;1999.90;999.90;;;23.50;99.90;;;;;;4995914;28;20546;-72
2022/07/24 07:52:38;;;;;;;1999.90;999.90;;;23.60;99.90;;;;;;4995868;28;20201;-72
2022/07/24 07:55:04;;;;;;;1999.90;999.90;;;23.60;99.90;;;;;;4995759;28;20271;-72
2022/07/24 07:57:30;;;;;;;1999.90;999.90;;;23.70;99.90;;;;;;4995642;28;20710;-72
2022/07/24 07:59:56;;;;;;;1999.90;999.90;;;23.80;99.90;;;;;;4995737;28;20417;-72
2022/07/24 08:02:21;;;;;;;1999.90;999.90;;;23.80;99.90;;;;;;4995852;28;20209;-71
2022/07/24 08:04:47;;;;;;;1999.90;999.90;;;23.80;99.90;;;;;;4995716;28;20580;-72
2022/07/24 08:07:13;;;;;;;1999.90;999.90;;;23.80;99.90;;;;;;4995249;28;20181;-72
2022/07/24 08:09:38;;;;;;;1999.90;999.90;;;23.70;99.90;;;;;;4995487;28;20295;-72
2022/07/24 08:12:04;;;;;;;1999.90;999.90;;;23.70;99.90;;;;;;4996414;28;20209;-70
2022/07/24 08:14:30;;;;;;;1999.90;999.90;;;23.70;99.90;;;;;;5014893;28;20556;-71
2022/07/24 08:16:56;;;;;;;1999.90;999.90;;;23.80;99.90;;;;;;5002459;28;20401;-70
2022/07/24 08:19:22;;;;;;;1999.90;999.90;;;23.90;99.90;;;;;;4995596;28;20205;-71
2022/07/24 08:21:48;;;;;;;1999.90;999.90;;;24.00;99.90;;;;;;4995324;28;20165;-71
2022/07/24 08:24:20;;;;;;;1999.90;999.90;;;24.20;99.90;;;;;;4995239;28;20200;-71
2022/07/24 08:26:46;;;;;;;1999.90;999.90;;;24.30;99.90;;;;;;4994868;28;20455;-71
2022/07/24 08:29:12;;;;;;;1999.90;999.90;;;24.30;99.90;;;;;;4994862;28;20418;-71
2022/07/24 08:31:38;;;;;;;1999.90;999.90;;;24.50;99.90;;;;;;4991600;28;20408;-71
2022/07/24 08:34:04;;;;;;;1999.90;999.90;;;24.60;99.90;;;;;;5005722;28;20298;-69
2022/07/24 08:36:29;;;;;;;1999.90;999.90;;;24.60;99.90;;;;;;5013352;28;20292;-71
2022/07/24 08:38:55;;;;;;;1999.90;999.90;;;24.70;99.90;;;;;;5013350;28;20653;-71
2022/07/24 08:41:21;;;;;;;1999.90;999.90;;;24.80;99.90;;;;;;5013736;28;20539;-68
2022/07/24 08:43:47;;;;;;;1999.90;999.90;;;24.90;99.90;;;;;;5013843;28;20213;-71
2022/07/24 08:46:14;;;;;;;1999.90;999.90;;;24.90;99.90;;;;;;5012822;28;20480;-69
2022/07/24 08:48:44;;;;;;;1999.90;999.90;;;25.10;99.90;;;;;;5013526;28;20231;-71
2022/07/24 08:51:12;;;;;;;1999.90;999.90;;;25.30;99.90;;;;;;5013371;28;20469;-71
2022/07/24 08:53:38;;;;;;;1999.90;999.90;;;25.40;99.90;;;;;;5013073;28;20550;-71
2022/07/24 08:56:04;;;;;;;1999.90;999.90;;;25.50;99.90;;;;;;5012538;28;20490;-69
2022/07/24 08:58:29;;;;;;;1999.90;999.90;;;25.60;99.90;;;;;;5013399;28;20279;-72
2022/07/24 09:00:55;;;;;;;1999.90;999.90;;;25.70;99.90;;;;;;5013193;28;20394;-71
2022/07/24 09:03:21;;;;;;;1999.90;999.90;;;25.80;99.90;;;;;;5013504;28;20648;-72
2022/07/24 09:05:54;;;;;;;1999.90;999.90;;;25.80;99.90;;;;;;5013362;28;20631;-70
2022/07/24 09:08:20;;;;;;;1999.90;999.90;;;25.80;99.90;;;;;;5012657;28;20197;-71
2022/07/24 09:11:03;;;;;;;1999.90;999.90;;;25.80;99.90;;;;;;5011891;28;20412;-68
2022/07/24 09:14:29;;;;;;;1999.90;999.90;;;25.80;99.90;;;;;;5012936;28;20247;-70
2022/07/24 09:16:23;;;;;;;1999.90;999.90;;;25.90;99.90;;;;;;5012315;28;20430;-69
2022/07/24 09:19:09;;;;;;;1999.90;999.90;;;26.10;99.90;;;;;;5013038;28;20461;-70
2022/07/24 09:21:37;;;;;;;1999.90;999.90;;;26.30;99.90;;;;;;5023780;22;20451;-66
2022/07/24 09:24:18;;;;;;;1999.90;999.90;;;26.40;99.90;;;;;;4993186;28;20368;-66
2022/07/24 09:26:57;;;;;;;1999.90;999.90;;;26.40;99.90;;;;;;4993166;28;20774;-65
2022/07/24 09:29:25;;;;;;;1999.90;999.90;;;26.50;99.90;;;;;;4993278;28;20367;-66
2022/07/24 09:31:57;;;;;;;1999.90;999.90;;;26.60;99.90;;;;;;4992862;28;20755;-65
2022/07/24 09:34:24;;;;;;;1999.90;999.90;;;26.80;99.90;;;;;;4993263;28;20397;-67
2022/07/24 09:37:04;;;;;;;1999.90;999.90;;;26.90;99.90;;;;;;4998563;28;20384;-66
2022/07/24 09:39:34;;;;;;;1999.90;999.90;;;26.90;99.90;;;;;;4995101;28;20412;-67
2022/07/24 09:42:02;;;;;;;1999.90;999.90;;;27.00;99.90;;;;;;5000544;28;20880;-66
2022/07/24 09:44:29;;;;;;;1999.90;999.90;;;27.10;99.90;;;;;;4983325;28;20830;-66
2022/07/24 09:47:02;;;;;;;1999.90;999.90;;;27.30;99.90;;;;;;4992637;28;20410;-66
2022/07/24 09:49:29;;;;;;;1999.90;999.90;;;27.50;99.90;;;;;;4993777;28;20403;-66
2022/07/24 09:52:29;;;;;;;1999.90;999.90;;;27.60;99.90;;;;;;4993097;28;20399;-66
2022/07/24 09:54:55;;;;;;;1999.90;999.90;;;27.70;99.90;;;;;;4992931;28;20409;-68
2022/07/24 09:57:26;;;;;;;1999.90;999.90;;;27.80;99.90;;;;;;4992526;28;20418;-68
2022/07/24 10:00:01;;;;;;;1999.90;999.90;;;27.90;99.90;;;;;;4991206;28;20176;-66
2022/07/24 10:02:32;;;;;;;1999.90;999.90;;;28.10;99.90;;;;;;4992601;28;20431;-66
2022/07/24 10:05:00;;;;;;;1999.90;999.90;;;28.10;99.90;;;;;;4992595;28;20416;-66
2022/07/24 10:07:27;;;;;;;1999.90;999.90;;;28.20;99.90;;;;;;4991308;28;20881;-66
2022/07/24 10:09:56;;;;;;;1999.90;999.90;;;28.40;99.90;;;;;;4992499;28;20413;-66
2022/07/24 10:12:24;;;;;;;1999.90;999.90;;;28.50;99.90;;;;;;4992594;28;20817;-66
2022/07/24 10:14:53;;;;;;;1999.90;999.90;;;28.60;99.60;;;;;;4992949;28;20393;-66
2022/07/24 10:17:20;;;;;;;1999.90;999.90;;;28.60;98.50;;;;;;4992883;28;20484;-67
2022/07/24 10:19:51;;;;;;;1999.90;999.90;;;28.70;96.40;;;;;;4992837;28;20405;-65
2022/07/24 10:22:23;;;;;;;1999.90;999.90;;;28.80;95.60;;;;;;4991850;28;20448;-65
2022/07/24 10:25:04;;;;;;;1999.90;999.90;;;29.00;94.00;;;;;;4992379;28;20440;-65
2022/07/24 10:27:32;;;;;;;1999.90;999.90;;;29.10;93.70;;;;;;4992132;28;20416;-65
2022/07/24 10:30:00;;;;;;;1999.90;999.90;;;29.20;95.00;;;;;;4991841;28;20408;-65
2022/07/24 10:32:27;;;;;;;1999.90;999.90;;;29.20;91.70;;;;;;4991990;28;20456;-65
2022/07/24 10:35:04;;;;;;;1999.90;999.90;;;29.20;91.30;;;;;;4992310;28;20897;-65
2022/07/24 10:38:00;;;;;;;1999.90;999.90;;;29.50;90.60;;;;;;4991632;28;20400;-65
2022/07/24 10:40:55;;;;;;;1999.90;999.90;;;29.60;89.30;;;;;;4992210;28;20484;-65
2022/07/24 10:43:22;;;;;;;1999.90;999.90;;;29.60;83.40;;;;;;4992130;28;20443;-66
2022/07/24 10:45:56;;;;;;;1999.90;999.90;;;29.60;82.40;;;;;;4992060;28;20404;-66
2022/07/24 10:48:28;;;;;;;1999.90;999.90;;;29.60;79.60;;;;;;4991918;28;20412;-65
2022/07/24 10:51:15;;;;;;;1999.90;999.90;;;29.80;80.10;;;;;;4992142;28;20913;-65
2022/07/24 10:53:45;;;;;;;1999.90;999.90;;;29.70;78.20;;;;;;4991675;28;20464;-65
2022/07/24 10:56:30;;;;;;;1999.90;999.90;;;29.90;76.90;;;;;;4991803;28;20409;-65
2022/07/24 10:59:07;;;;;;;1999.90;999.90;;;30.10;75.10;;;;;;4991593;28;20407;-65
2022/07/24 11:01:44;;;;;;;1999.90;999.90;;;30.30;71.50;;;;;;4991969;28;20843;-65
2022/07/24 11:04:18;;;;;;;1999.90;999.90;;;30.40;69.00;;;;;;4991891;28;20396;-66
2022/07/24 11:07:06;;;;;;;1999.90;999.90;;;30.70;69.80;;;;;;4990010;28;20974;-66
2022/07/24 11:09:53;;;;;;;1999.90;999.90;;;30.90;70.30;;;;;;4991880;28;20488;-65
2022/07/24 11:12:30;;;;;;;1999.90;999.90;;;31.00;63.20;;;;;;4991899;28;20563;-65
2022/07/24 11:17:48;;;;;;;1999.90;999.90;;;31.10;59.50;;;;;;4991967;28;20404;-65
2022/07/24 11:20:16;;;;;;;1999.90;999.90;;;31.10;56.40;;;;;;4994447;28;20397;-65
2022/07/24 11:22:50;;;;;;;1999.90;999.90;;;31.30;56.40;;;;;;4995023;28;20945;-65
2022/07/24 11:25:18;;;;;;;1999.90;999.90;;;31.50;58.30;;;;;;4995723;28;20423;-65
2022/07/24 11:27:47;;;;;;;1999.90;999.90;;;31.60;58.20;;;;;;4995441;28;20835;-65
2022/07/24 11:30:13;;;;;;;1999.90;999.90;;;31.80;53.90;;;;;;4995214;28;20894;-65
2022/07/24 11:32:42;;;;;;;1999.90;999.90;;;31.80;52.30;;;;;;4995676;28;20830;-65
2022/07/24 11:35:08;;;;;;;1999.90;999.90;;;31.80;55.90;;;;;;4995593;28;20775;-65
2022/07/24 11:37:36;;;;;;;1999.90;999.90;;;31.90;51.40;;;;;;4994929;28;20401;-65
2022/07/24 11:40:04;;;;;;;1999.90;999.90;;;32.00;55.00;;;;;;4995387;28;20405;-66
2022/07/24 11:42:29;;;;;;;1999.90;999.90;;;32.10;51.50;;;;;;4995484;28;20476;-66
2022/07/24 11:44:55;;;;;;;1999.90;999.90;;;32.00;48.90;;;;;;4994674;28;20409;-65
2022/07/24 11:47:23;;;;;;;1999.90;999.90;;;31.90;50.40;;;;;;4995067;28;20189;-65
2022/07/24 11:50:04;;;;;;;1999.90;999.90;;;31.90;47.10;;;;;;4995345;28;20551;-65
2022/07/24 11:52:33;;;;;;;1999.90;999.90;;;31.90;46.80;;;;;;4999182;28;20463;-67
2022/07/24 11:55:20;;;;;;;1999.90;999.90;;;32.10;47.10;;;;;;5004888;28;20400;-66
2022/07/24 11:57:51;;;;;;;1999.90;999.90;;;31.80;46.30;;;;;;4994569;28;20444;-65
2022/07/24 12:00:21;;;;;;;1999.90;999.90;;;31.90;45.20;;;;;;4994918;28;20409;-66
2022/07/24 12:02:57;;;;;;;1999.90;999.90;;;32.20;45.70;;;;;;4994916;28;20427;-65